VOCB/CJB METAR and TAF weather

Enter ICAO airport designator
Station Type Date Time Source
VOCB METAR 2019/05/19 06:30 UTC NOAA

VOCB 190630Z VRB03KT 6000 HZ FEW015 34/22 Q1011 NSC


Station Type Date Time Source
VOCB Decoded METAR 2019/05/19 06:30 UTC NOAA

Coimbatore / Peelamedu, India (VOCB) 11-02N 077-03E 399M
May 19, 2019 - 02:30 AM EDT / 2019.05.19 0630 UTC
Wind: Variable at 3 MPH (3 KT):0
Visibility: 3 mile(s):0
Sky conditions: mostly clear
Weather: haze
Temperature: 93 F (34 C)
Heat index: 100.0 F (37.8 C):1
Dew Point: 71 F (22 C)
Relative Humidity: 49%
Pressure (altimeter): 29.85 in. Hg (1011 hPa)
ob: VOCB 190630Z VRB03KT 6000 HZ FEW015 34/22 Q1011 NSC
cycle: 6

Station Type Date Time Source
VOCB TAF 2019/05/19 06:00 UTC NOAA

TAF VOCB 190500Z 1906/2012 18010KT 6000 FEW015 SCT080
TEMPO 1909/1915 4000 -TSRA/RA FEW015 FEW020TCU/CB BKN080
BECMG 1915/1916 4000 BR
BECMG 2005/2006 6000

Example: see airport list